sensor_id;sensor_type;location;lat;lon;timestamp;P1;durP1;ratioP1;P2;durP2;ratioP2
7375;SDS011;3728;42.266;24.944;2023-05-07T00:01:32;6.17;;;4.00;;
7375;SDS011;3728;42.266;24.944;2023-05-07T00:03:59;7.53;;;4.00;;
7375;SDS011;3728;42.266;24.944;2023-05-07T00:06:27;6.93;;;4.60;;
7375;SDS011;3728;42.266;24.944;2023-05-07T00:08:56;10.07;;;5.13;;
7375;SDS011;3728;42.266;24.944;2023-05-07T00:11:24;11.47;;;8.53;;
7375;SDS011;3728;42.266;24.944;2023-05-07T00:13:53;30.47;;;19.43;;
7375;SDS011;3728;42.266;24.944;2023-05-07T00:16:21;34.50;;;19.87;;
7375;SDS011;3728;42.266;24.944;2023-05-07T00:18:49;19.10;;;12.33;;
7375;SDS011;3728;42.266;24.944;2023-05-07T00:21:17;17.77;;;10.53;;
7375;SDS011;3728;42.266;24.944;2023-05-07T00:23:44;15.53;;;9.43;;
7375;SDS011;3728;42.266;24.944;2023-05-07T00:26:12;11.90;;;8.93;;
7375;SDS011;3728;42.266;24.944;2023-05-07T00:28:41;16.53;;;8.97;;
7375;SDS011;3728;42.266;24.944;2023-05-07T00:31:09;13.40;;;7.27;;
7375;SDS011;3728;42.266;24.944;2023-05-07T00:33:37;15.33;;;8.07;;
7375;SDS011;3728;42.266;24.944;2023-05-07T00:36:05;11.37;;;7.47;;
7375;SDS011;3728;42.266;24.944;2023-05-07T00:38:33;11.17;;;5.33;;
7375;SDS011;3728;42.266;24.944;2023-05-07T00:41:01;10.90;;;4.80;;
7375;SDS011;3728;42.266;24.944;2023-05-07T00:43:28;8.57;;;4.77;;
7375;SDS011;3728;42.266;24.944;2023-05-07T00:45:59;8.13;;;5.30;;
7375;SDS011;3728;42.266;24.944;2023-05-07T00:48:27;6.97;;;5.60;;
7375;SDS011;3728;42.266;24.944;2023-05-07T00:50:55;10.33;;;5.67;;
7375;SDS011;3728;42.266;24.944;2023-05-07T00:53:23;11.30;;;6.63;;
7375;SDS011;3728;42.266;24.944;2023-05-07T00:55:53;9.40;;;7.20;;
7375;SDS011;3728;42.266;24.944;2023-05-07T00:58:21;12.77;;;7.77;;
7375;SDS011;3728;42.266;24.944;2023-05-07T01:00:49;12.80;;;7.80;;
7375;SDS011;3728;42.266;24.944;2023-05-07T01:03:16;10.37;;;7.90;;
7375;SDS011;3728;42.266;24.944;2023-05-07T01:05:44;8.90;;;8.00;;
7375;SDS011;3728;42.266;24.944;2023-05-07T01:08:15;10.53;;;7.67;;
7375;SDS011;3728;42.266;24.944;2023-05-07T01:10:43;13.63;;;7.50;;
7375;SDS011;3728;42.266;24.944;2023-05-07T01:13:12;11.80;;;7.00;;
7375;SDS011;3728;42.266;24.944;2023-05-07T01:15:42;7.67;;;6.13;;
7375;SDS011;3728;42.266;24.944;2023-05-07T01:18:10;7.63;;;5.60;;
7375;SDS011;3728;42.266;24.944;2023-05-07T01:20:42;8.70;;;5.70;;
7375;SDS011;3728;42.266;24.944;2023-05-07T01:23:10;8.37;;;5.87;;
7375;SDS011;3728;42.266;24.944;2023-05-07T01:25:38;9.77;;;6.03;;
7375;SDS011;3728;42.266;24.944;2023-05-07T01:28:07;13.93;;;6.97;;
7375;SDS011;3728;42.266;24.944;2023-05-07T01:30:44;8.17;;;6.63;;
7375;SDS011;3728;42.266;24.944;2023-05-07T01:33:23;6.53;;;5.83;;
7375;SDS011;3728;42.266;24.944;2023-05-07T01:35:53;8.07;;;6.33;;
7375;SDS011;3728;42.266;24.944;2023-05-07T01:38:21;8.93;;;6.33;;
7375;SDS011;3728;42.266;24.944;2023-05-07T01:40:50;6.67;;;5.83;;
7375;SDS011;3728;42.266;24.944;2023-05-07T01:43:18;13.07;;;6.60;;
7375;SDS011;3728;42.266;24.944;2023-05-07T01:45:46;9.97;;;6.50;;
7375;SDS011;3728;42.266;24.944;2023-05-07T01:48:16;13.20;;;6.40;;
7375;SDS011;3728;42.266;24.944;2023-05-07T01:50:44;9.00;;;6.30;;
7375;SDS011;3728;42.266;24.944;2023-05-07T01:53:13;10.93;;;6.67;;
7375;SDS011;3728;42.266;24.944;2023-05-07T01:55:42;9.33;;;6.33;;
7375;SDS011;3728;42.266;24.944;2023-05-07T01:58:09;8.57;;;6.40;;
7375;SDS011;3728;42.266;24.944;2023-05-07T02:00:37;8.83;;;5.70;;
7375;SDS011;3728;42.266;24.944;2023-05-07T02:03:06;9.40;;;6.10;;
7375;SDS011;3728;42.266;24.944;2023-05-07T02:05:48;8.50;;;6.17;;
7375;SDS011;3728;42.266;24.944;2023-05-07T02:08:36;9.77;;;5.97;;
7375;SDS011;3728;42.266;24.944;2023-05-07T02:11:04;9.63;;;5.77;;
7375;SDS011;3728;42.266;24.944;2023-05-07T02:13:33;7.63;;;6.20;;
7375;SDS011;3728;42.266;24.944;2023-05-07T02:16:02;8.00;;;6.13;;
7375;SDS011;3728;42.266;24.944;2023-05-07T02:18:31;7.67;;;6.07;;
7375;SDS011;3728;42.266;24.944;2023-05-07T02:20:59;12.23;;;5.40;;
7375;SDS011;3728;42.266;24.944;2023-05-07T02:23:26;10.57;;;5.37;;
7375;SDS011;3728;42.266;24.944;2023-05-07T02:25:54;6.47;;;5.30;;
7375;SDS011;3728;42.266;24.944;2023-05-07T02:28:21;17.90;;;5.83;;
7375;SDS011;3728;42.266;24.944;2023-05-07T02:30:57;8.33;;;5.00;;
7375;SDS011;3728;42.266;24.944;2023-05-07T02:33:27;10.07;;;5.00;;
7375;SDS011;3728;42.266;24.944;2023-05-07T02:35:55;16.53;;;5.40;;
7375;SDS011;3728;42.266;24.944;2023-05-07T02:38:23;6.07;;;4.97;;
7375;SDS011;3728;42.266;24.944;2023-05-07T02:40:50;9.77;;;4.93;;
7375;SDS011;3728;42.266;24.944;2023-05-07T02:43:18;8.97;;;4.43;;
7375;SDS011;3728;42.266;24.944;2023-05-07T02:45:47;5.93;;;5.30;;
7375;SDS011;3728;42.266;24.944;2023-05-07T02:48:15;8.20;;;5.83;;
7375;SDS011;3728;42.266;24.944;2023-05-07T02:50:43;7.30;;;5.27;;
7375;SDS011;3728;42.266;24.944;2023-05-07T02:53:12;11.73;;;5.23;;
7375;SDS011;3728;42.266;24.944;2023-05-07T02:55:40;11.43;;;4.87;;
7375;SDS011;3728;42.266;24.944;2023-05-07T02:58:07;8.13;;;5.33;;
7375;SDS011;3728;42.266;24.944;2023-05-07T03:00:36;13.10;;;5.50;;
7375;SDS011;3728;42.266;24.944;2023-05-07T03:03:14;6.40;;;5.00;;
7375;SDS011;3728;42.266;24.944;2023-05-07T03:05:42;9.70;;;5.50;;
7375;SDS011;3728;42.266;24.944;2023-05-07T03:08:09;7.83;;;5.37;;
7375;SDS011;3728;42.266;24.944;2023-05-07T03:10:37;9.03;;;5.17;;
7375;SDS011;3728;42.266;24.944;2023-05-07T03:13:07;6.93;;;5.23;;
7375;SDS011;3728;42.266;24.944;2023-05-07T03:15:35;7.97;;;5.33;;
7375;SDS011;3728;42.266;24.944;2023-05-07T03:18:03;7.80;;;5.30;;
7375;SDS011;3728;42.266;24.944;2023-05-07T03:20:31;11.80;;;5.70;;
7375;SDS011;3728;42.266;24.944;2023-05-07T03:22:59;8.20;;;5.83;;
7375;SDS011;3728;42.266;24.944;2023-05-07T03:25:27;10.17;;;6.13;;
7375;SDS011;3728;42.266;24.944;2023-05-07T03:27:56;8.53;;;6.33;;
7375;SDS011;3728;42.266;24.944;2023-05-07T03:30:31;12.23;;;6.23;;
7375;SDS011;3728;42.266;24.944;2023-05-07T03:32:58;11.57;;;6.10;;
7375;SDS011;3728;42.266;24.944;2023-05-07T03:35:26;7.70;;;5.80;;
7375;SDS011;3728;42.266;24.944;2023-05-07T03:37:54;10.43;;;5.60;;
7375;SDS011;3728;42.266;24.944;2023-05-07T03:40:22;12.37;;;5.90;;
7375;SDS011;3728;42.266;24.944;2023-05-07T03:42:52;6.93;;;5.40;;
7375;SDS011;3728;42.266;24.944;2023-05-07T03:45:23;10.40;;;5.70;;
7375;SDS011;3728;42.266;24.944;2023-05-07T03:47:59;7.30;;;5.57;;
7375;SDS011;3728;42.266;24.944;2023-05-07T03:50:27;9.50;;;5.93;;
7375;SDS011;3728;42.266;24.944;2023-05-07T03:52:57;6.90;;;5.47;;
7375;SDS011;3728;42.266;24.944;2023-05-07T03:55:26;16.27;;;5.90;;
7375;SDS011;3728;42.266;24.944;2023-05-07T03:57:57;7.63;;;5.67;;
7375;SDS011;3728;42.266;24.944;2023-05-07T04:00:26;10.13;;;6.10;;
7375;SDS011;3728;42.266;24.944;2023-05-07T04:03:01;9.53;;;5.70;;
7375;SDS011;3728;42.266;24.944;2023-05-07T04:05:30;9.43;;;5.57;;
7375;SDS011;3728;42.266;24.944;2023-05-07T04:08:01;9.57;;;5.73;;
7375;SDS011;3728;42.266;24.944;2023-05-07T04:10:38;7.63;;;5.07;;
7375;SDS011;3728;42.266;24.944;2023-05-07T04:13:09;8.10;;;5.07;;
7375;SDS011;3728;42.266;24.944;2023-05-07T04:15:37;9.93;;;5.90;;
7375;SDS011;3728;42.266;24.944;2023-05-07T04:18:08;9.67;;;5.87;;
7375;SDS011;3728;42.266;24.944;2023-05-07T04:20:36;8.00;;;5.70;;
7375;SDS011;3728;42.266;24.944;2023-05-07T04:23:08;11.03;;;5.43;;
7375;SDS011;3728;42.266;24.944;2023-05-07T04:25:35;8.33;;;5.70;;
7375;SDS011;3728;42.266;24.944;2023-05-07T04:28:17;12.33;;;5.80;;
7375;SDS011;3728;42.266;24.944;2023-05-07T04:30:46;6.50;;;5.80;;
7375;SDS011;3728;42.266;24.944;2023-05-07T04:33:14;12.63;;;6.20;;
7375;SDS011;3728;42.266;24.944;2023-05-07T04:35:46;8.37;;;5.87;;
7375;SDS011;3728;42.266;24.944;2023-05-07T04:38:14;10.70;;;6.13;;
7375;SDS011;3728;42.266;24.944;2023-05-07T04:40:42;6.57;;;5.23;;
7375;SDS011;3728;42.266;24.944;2023-05-07T04:43:13;9.60;;;6.27;;
7375;SDS011;3728;42.266;24.944;2023-05-07T04:45:46;8.17;;;5.63;;
7375;SDS011;3728;42.266;24.944;2023-05-07T04:48:16;10.13;;;6.50;;
7375;SDS011;3728;42.266;24.944;2023-05-07T04:50:49;6.50;;;5.90;;
7375;SDS011;3728;42.266;24.944;2023-05-07T04:53:19;11.50;;;5.90;;
7375;SDS011;3728;42.266;24.944;2023-05-07T04:55:48;6.37;;;5.77;;
7375;SDS011;3728;42.266;24.944;2023-05-07T04:58:30;8.83;;;5.73;;
7375;SDS011;3728;42.266;24.944;2023-05-07T05:00:59;12.80;;;6.37;;
7375;SDS011;3728;42.266;24.944;2023-05-07T05:03:27;6.70;;;5.03;;
7375;SDS011;3728;42.266;24.944;2023-05-07T05:05:56;9.40;;;5.97;;
7375;SDS011;3728;42.266;24.944;2023-05-07T05:08:30;9.20;;;5.70;;
7375;SDS011;3728;42.266;24.944;2023-05-07T05:11:00;6.27;;;5.10;;
7375;SDS011;3728;42.266;24.944;2023-05-07T05:13:31;9.37;;;5.43;;
7375;SDS011;3728;42.266;24.944;2023-05-07T05:16:02;7.40;;;5.13;;
7375;SDS011;3728;42.266;24.944;2023-05-07T05:18:31;8.83;;;5.03;;
7375;SDS011;3728;42.266;24.944;2023-05-07T05:20:59;6.87;;;5.57;;
7375;SDS011;3728;42.266;24.944;2023-05-07T05:23:28;8.87;;;5.10;;
7375;SDS011;3728;42.266;24.944;2023-05-07T05:25:57;13.33;;;4.97;;
7375;SDS011;3728;42.266;24.944;2023-05-07T05:28:28;7.23;;;5.20;;
7375;SDS011;3728;42.266;24.944;2023-05-07T05:30:56;6.93;;;4.80;;
7375;SDS011;3728;42.266;24.944;2023-05-07T05:33:26;5.90;;;5.03;;
7375;SDS011;3728;42.266;24.944;2023-05-07T05:35:59;9.20;;;4.93;;
7375;SDS011;3728;42.266;24.944;2023-05-07T05:38:29;7.17;;;4.80;;
7375;SDS011;3728;42.266;24.944;2023-05-07T05:40:57;6.37;;;4.40;;
7375;SDS011;3728;42.266;24.944;2023-05-07T05:43:28;11.77;;;5.63;;
7375;SDS011;3728;42.266;24.944;2023-05-07T05:45:56;8.40;;;5.63;;
7375;SDS011;3728;42.266;24.944;2023-05-07T05:48:24;8.03;;;5.47;;
7375;SDS011;3728;42.266;24.944;2023-05-07T05:50:52;11.43;;;5.47;;
7375;SDS011;3728;42.266;24.944;2023-05-07T05:53:20;5.83;;;4.83;;
7375;SDS011;3728;42.266;24.944;2023-05-07T05:55:48;10.03;;;4.90;;
7375;SDS011;3728;42.266;24.944;2023-05-07T05:58:16;6.03;;;4.97;;
7375;SDS011;3728;42.266;24.944;2023-05-07T06:00:50;10.80;;;5.90;;
7375;SDS011;3728;42.266;24.944;2023-05-07T06:03:25;6.43;;;5.53;;
7375;SDS011;3728;42.266;24.944;2023-05-07T06:05:54;10.90;;;5.40;;
7375;SDS011;3728;42.266;24.944;2023-05-07T06:08:22;5.17;;;4.43;;
7375;SDS011;3728;42.266;24.944;2023-05-07T06:10:50;5.83;;;4.63;;
7375;SDS011;3728;42.266;24.944;2023-05-07T06:13:18;6.90;;;4.43;;
7375;SDS011;3728;42.266;24.944;2023-05-07T06:15:46;6.30;;;4.57;;
7375;SDS011;3728;42.266;24.944;2023-05-07T06:18:13;4.70;;;3.90;;
7375;SDS011;3728;42.266;24.944;2023-05-07T06:20:41;8.07;;;4.50;;
7375;SDS011;3728;42.266;24.944;2023-05-07T06:23:16;9.30;;;4.03;;
7375;SDS011;3728;42.266;24.944;2023-05-07T06:25:50;6.37;;;4.50;;
7375;SDS011;3728;42.266;24.944;2023-05-07T06:28:21;4.80;;;4.30;;
7375;SDS011;3728;42.266;24.944;2023-05-07T06:30:50;6.07;;;3.70;;
7375;SDS011;3728;42.266;24.944;2023-05-07T06:33:20;5.40;;;3.77;;
7375;SDS011;3728;42.266;24.944;2023-05-07T06:35:50;12.73;;;4.73;;
7375;SDS011;3728;42.266;24.944;2023-05-07T06:38:18;11.13;;;4.43;;
7375;SDS011;3728;42.266;24.944;2023-05-07T06:40:48;8.50;;;4.17;;
7375;SDS011;3728;42.266;24.944;2023-05-07T06:43:16;6.43;;;3.87;;
7375;SDS011;3728;42.266;24.944;2023-05-07T06:45:53;5.17;;;4.00;;
7375;SDS011;3728;42.266;24.944;2023-05-07T06:48:21;6.80;;;4.33;;
7375;SDS011;3728;42.266;24.944;2023-05-07T06:50:56;6.90;;;4.10;;
7375;SDS011;3728;42.266;24.944;2023-05-07T06:53:25;3.83;;;3.27;;
7375;SDS011;3728;42.266;24.944;2023-05-07T06:55:54;6.37;;;4.10;;
7375;SDS011;3728;42.266;24.944;2023-05-07T06:58:22;5.43;;;3.90;;
7375;SDS011;3728;42.266;24.944;2023-05-07T07:00:51;4.60;;;4.20;;
7375;SDS011;3728;42.266;24.944;2023-05-07T07:03:19;11.37;;;4.37;;
7375;SDS011;3728;42.266;24.944;2023-05-07T07:05:47;7.07;;;3.83;;
7375;SDS011;3728;42.266;24.944;2023-05-07T07:08:19;6.30;;;3.57;;
7375;SDS011;3728;42.266;24.944;2023-05-07T07:10:48;7.97;;;3.47;;
7375;SDS011;3728;42.266;24.944;2023-05-07T07:13:16;4.47;;;3.80;;
7375;SDS011;3728;42.266;24.944;2023-05-07T07:15:45;5.67;;;3.40;;
7375;SDS011;3728;42.266;24.944;2023-05-07T07:18:12;6.10;;;3.57;;
7375;SDS011;3728;42.266;24.944;2023-05-07T07:20:42;4.47;;;3.33;;
7375;SDS011;3728;42.266;24.944;2023-05-07T07:23:12;4.57;;;3.10;;
7375;SDS011;3728;42.266;24.944;2023-05-07T07:25:40;4.60;;;3.53;;
7375;SDS011;3728;42.266;24.944;2023-05-07T07:28:09;6.77;;;4.87;;
7375;SDS011;3728;42.266;24.944;2023-05-07T07:30:37;6.20;;;4.03;;
7375;SDS011;3728;42.266;24.944;2023-05-07T07:33:06;5.93;;;3.33;;
7375;SDS011;3728;42.266;24.944;2023-05-07T07:35:36;4.07;;;3.20;;
7375;SDS011;3728;42.266;24.944;2023-05-07T07:38:05;5.43;;;3.47;;
7375;SDS011;3728;42.266;24.944;2023-05-07T07:40:36;5.53;;;3.90;;
7375;SDS011;3728;42.266;24.944;2023-05-07T07:43:08;6.23;;;3.53;;
7375;SDS011;3728;42.266;24.944;2023-05-07T07:45:36;5.17;;;3.20;;
7375;SDS011;3728;42.266;24.944;2023-05-07T07:48:06;4.93;;;3.33;;
7375;SDS011;3728;42.266;24.944;2023-05-07T07:50:36;7.00;;;3.33;;
7375;SDS011;3728;42.266;24.944;2023-05-07T07:53:16;6.63;;;3.30;;
7375;SDS011;3728;42.266;24.944;2023-05-07T07:55:44;3.70;;;3.10;;
7375;SDS011;3728;42.266;24.944;2023-05-07T07:58:15;11.67;;;3.77;;
7375;SDS011;3728;42.266;24.944;2023-05-07T08:00:43;4.47;;;3.30;;
7375;SDS011;3728;42.266;24.944;2023-05-07T08:03:12;3.53;;;3.05;;
7375;SDS011;3728;42.266;24.944;2023-05-07T08:05:44;5.65;;;2.90;;
7375;SDS011;3728;42.266;24.944;2023-05-07T08:08:12;3.22;;;2.72;;
7375;SDS011;3728;42.266;24.944;2023-05-07T08:10:41;6.80;;;2.83;;
7375;SDS011;3728;42.266;24.944;2023-05-07T08:13:17;4.47;;;2.90;;
7375;SDS011;3728;42.266;24.944;2023-05-07T08:15:46;5.07;;;2.57;;
7375;SDS011;3728;42.266;24.944;2023-05-07T08:18:16;9.48;;;2.95;;
7375;SDS011;3728;42.266;24.944;2023-05-07T08:20:44;4.13;;;2.70;;
7375;SDS011;3728;42.266;24.944;2023-05-07T08:23:17;4.15;;;2.78;;
7375;SDS011;3728;42.266;24.944;2023-05-07T08:25:45;4.85;;;2.60;;
7375;SDS011;3728;42.266;24.944;2023-05-07T08:28:14;3.97;;;2.83;;
7375;SDS011;3728;42.266;24.944;2023-05-07T08:30:42;4.50;;;2.60;;
7375;SDS011;3728;42.266;24.944;2023-05-07T08:33:10;4.78;;;2.50;;
7375;SDS011;3728;42.266;24.944;2023-05-07T08:35:38;3.15;;;2.53;;
7375;SDS011;3728;42.266;24.944;2023-05-07T08:38:07;4.75;;;2.60;;
7375;SDS011;3728;42.266;24.944;2023-05-07T08:40:37;4.10;;;2.50;;
7375;SDS011;3728;42.266;24.944;2023-05-07T08:43:13;4.63;;;2.47;;
7375;SDS011;3728;42.266;24.944;2023-05-07T08:45:44;3.83;;;2.25;;
7375;SDS011;3728;42.266;24.944;2023-05-07T08:48:16;4.60;;;2.65;;
7375;SDS011;3728;42.266;24.944;2023-05-07T08:50:52;4.45;;;2.53;;
7375;SDS011;3728;42.266;24.944;2023-05-07T08:53:21;4.63;;;2.30;;
7375;SDS011;3728;42.266;24.944;2023-05-07T08:55:49;7.38;;;3.13;;
7375;SDS011;3728;42.266;24.944;2023-05-07T08:58:18;5.68;;;2.90;;
7375;SDS011;3728;42.266;24.944;2023-05-07T09:00:47;9.30;;;4.78;;
7375;SDS011;3728;42.266;24.944;2023-05-07T09:03:15;14.10;;;5.93;;
7375;SDS011;3728;42.266;24.944;2023-05-07T09:05:47;7.30;;;5.80;;
7375;SDS011;3728;42.266;24.944;2023-05-07T09:08:17;11.85;;;6.00;;
7375;SDS011;3728;42.266;24.944;2023-05-07T09:10:46;5.25;;;4.75;;
7375;SDS011;3728;42.266;24.944;2023-05-07T09:13:19;2.72;;;2.53;;
7375;SDS011;3728;42.266;24.944;2023-05-07T09:15:48;4.47;;;3.60;;
7375;SDS011;3728;42.266;24.944;2023-05-07T09:18:17;8.65;;;3.38;;
7375;SDS011;3728;42.266;24.944;2023-05-07T09:20:46;3.92;;;3.47;;
7375;SDS011;3728;42.266;24.944;2023-05-07T09:23:17;6.20;;;2.97;;
7375;SDS011;3728;42.266;24.944;2023-05-07T09:25:46;2.85;;;2.47;;
7375;SDS011;3728;42.266;24.944;2023-05-07T09:28:20;3.70;;;2.20;;
7375;SDS011;3728;42.266;24.944;2023-05-07T09:30:49;6.78;;;2.58;;
7375;SDS011;3728;42.266;24.944;2023-05-07T09:33:18;2.38;;;2.17;;
7375;SDS011;3728;42.266;24.944;2023-05-07T09:35:52;3.22;;;2.58;;
7375;SDS011;3728;42.266;24.944;2023-05-07T09:38:59;4.72;;;2.40;;
7375;SDS011;3728;42.266;24.944;2023-05-07T09:41:29;4.72;;;2.03;;
7375;SDS011;3728;42.266;24.944;2023-05-07T09:44:12;4.00;;;2.15;;
7375;SDS011;3728;42.266;24.944;2023-05-07T09:46:50;5.38;;;2.08;;
7375;SDS011;3728;42.266;24.944;2023-05-07T09:49:29;3.08;;;2.33;;
7375;SDS011;3728;42.266;24.944;2023-05-07T09:52:04;3.13;;;2.40;;
7375;SDS011;3728;42.266;24.944;2023-05-07T09:54:39;3.35;;;2.20;;
7375;SDS011;3728;42.266;24.944;2023-05-07T09:57:10;4.03;;;2.10;;
7375;SDS011;3728;42.266;24.944;2023-05-07T09:59:42;3.10;;;2.15;;
7375;SDS011;3728;42.266;24.944;2023-05-07T10:02:14;5.60;;;2.40;;
7375;SDS011;3728;42.266;24.944;2023-05-07T10:04:46;3.70;;;2.13;;
7375;SDS011;3728;42.266;24.944;2023-05-07T10:07:21;4.70;;;2.63;;
7375;SDS011;3728;42.266;24.944;2023-05-07T10:09:54;3.88;;;2.00;;
7375;SDS011;3728;42.266;24.944;2023-05-07T10:12:32;3.72;;;2.17;;
7375;SDS011;3728;42.266;24.944;2023-05-07T10:15:12;3.65;;;1.88;;
7375;SDS011;3728;42.266;24.944;2023-05-07T10:17:45;2.70;;;1.80;;
7375;SDS011;3728;42.266;24.944;2023-05-07T10:20:15;4.38;;;2.10;;
7375;SDS011;3728;42.266;24.944;2023-05-07T10:22:45;8.23;;;1.92;;
7375;SDS011;3728;42.266;24.944;2023-05-07T10:25:21;3.28;;;2.17;;
7375;SDS011;3728;42.266;24.944;2023-05-07T10:27:59;3.45;;;1.73;;
7375;SDS011;3728;42.266;24.944;2023-05-07T10:30:38;3.08;;;1.85;;
7375;SDS011;3728;42.266;24.944;2023-05-07T10:33:26;2.80;;;1.70;;
7375;SDS011;3728;42.266;24.944;2023-05-07T10:36:00;3.80;;;2.28;;
7375;SDS011;3728;42.266;24.944;2023-05-07T10:38:33;3.60;;;1.88;;
7375;SDS011;3728;42.266;24.944;2023-05-07T10:41:01;5.03;;;2.30;;
7375;SDS011;3728;42.266;24.944;2023-05-07T10:43:42;4.90;;;1.98;;
7375;SDS011;3728;42.266;24.944;2023-05-07T10:46:30;3.95;;;2.20;;
7375;SDS011;3728;42.266;24.944;2023-05-07T10:49:08;2.00;;;1.77;;
7375;SDS011;3728;42.266;24.944;2023-05-07T10:51:47;2.13;;;1.80;;
7375;SDS011;3728;42.266;24.944;2023-05-07T11:01:36;2.80;;;2.03;;
7375;SDS011;3728;42.266;24.944;2023-05-07T11:04:28;5.20;;;2.30;;
7375;SDS011;3728;42.266;24.944;2023-05-07T11:07:24;2.50;;;1.80;;
7375;SDS011;3728;42.266;24.944;2023-05-07T11:10:11;2.30;;;1.83;;
7375;SDS011;3728;42.266;24.944;2023-05-07T11:12:53;3.90;;;2.20;;
7375;SDS011;3728;42.266;24.944;2023-05-07T11:15:40;4.45;;;2.00;;
7375;SDS011;3728;42.266;24.944;2023-05-07T11:18:23;1.80;;;1.70;;
7375;SDS011;3728;42.266;24.944;2023-05-07T11:20:56;7.68;;;1.83;;
7375;SDS011;3728;42.266;24.944;2023-05-07T11:26:30;3.90;;;1.98;;
7375;SDS011;3728;42.266;24.944;2023-05-07T11:31:53;2.50;;;1.95;;
7375;SDS011;3728;42.266;24.944;2023-05-07T11:34:35;1.52;;;1.42;;
7375;SDS011;3728;42.266;24.944;2023-05-07T11:37:03;4.53;;;1.70;;
7375;SDS011;3728;42.266;24.944;2023-05-07T11:40:05;2.38;;;1.95;;
7375;SDS011;3728;42.266;24.944;2023-05-07T11:42:39;2.30;;;1.98;;
7375;SDS011;3728;42.266;24.944;2023-05-07T11:45:10;2.83;;;1.88;;
7375;SDS011;3728;42.266;24.944;2023-05-07T11:47:41;2.17;;;1.75;;
7375;SDS011;3728;42.266;24.944;2023-05-07T11:50:10;2.60;;;2.03;;
7375;SDS011;3728;42.266;24.944;2023-05-07T11:52:49;2.50;;;2.05;;
7375;SDS011;3728;42.266;24.944;2023-05-07T11:55:19;4.10;;;2.05;;
7375;SDS011;3728;42.266;24.944;2023-05-07T11:57:48;3.05;;;2.10;;
7375;SDS011;3728;42.266;24.944;2023-05-07T12:00:39;1.80;;;1.70;;
7375;SDS011;3728;42.266;24.944;2023-05-07T12:03:18;3.15;;;1.75;;
7375;SDS011;3728;42.266;24.944;2023-05-07T12:05:47;2.42;;;1.73;;
7375;SDS011;3728;42.266;24.944;2023-05-07T12:08:39;2.28;;;1.67;;
7375;SDS011;3728;42.266;24.944;2023-05-07T12:11:13;2.13;;;1.55;;
7375;SDS011;3728;42.266;24.944;2023-05-07T12:13:53;3.53;;;2.00;;
7375;SDS011;3728;42.266;24.944;2023-05-07T12:16:25;3.15;;;1.77;;
7375;SDS011;3728;42.266;24.944;2023-05-07T12:18:56;1.65;;;1.55;;
7375;SDS011;3728;42.266;24.944;2023-05-07T12:21:25;3.47;;;1.50;;
7375;SDS011;3728;42.266;24.944;2023-05-07T12:23:53;5.05;;;1.70;;
7375;SDS011;3728;42.266;24.944;2023-05-07T12:26:21;2.13;;;1.52;;
7375;SDS011;3728;42.266;24.944;2023-05-07T12:28:51;3.70;;;1.52;;
7375;SDS011;3728;42.266;24.944;2023-05-07T12:31:18;4.75;;;1.35;;
7375;SDS011;3728;42.266;24.944;2023-05-07T12:33:50;2.47;;;1.30;;
7375;SDS011;3728;42.266;24.944;2023-05-07T12:36:20;2.45;;;1.63;;
7375;SDS011;3728;42.266;24.944;2023-05-07T12:38:49;3.10;;;1.65;;
7375;SDS011;3728;42.266;24.944;2023-05-07T12:41:17;1.67;;;1.33;;
7375;SDS011;3728;42.266;24.944;2023-05-07T12:43:45;2.28;;;1.52;;
7375;SDS011;3728;42.266;24.944;2023-05-07T12:46:14;3.58;;;1.60;;
7375;SDS011;3728;42.266;24.944;2023-05-07T12:48:47;3.83;;;1.60;;
7375;SDS011;3728;42.266;24.944;2023-05-07T12:51:15;2.80;;;1.50;;
7375;SDS011;3728;42.266;24.944;2023-05-07T12:53:45;1.55;;;1.45;;
7375;SDS011;3728;42.266;24.944;2023-05-07T12:56:13;4.35;;;1.60;;
7375;SDS011;3728;42.266;24.944;2023-05-07T12:58:44;3.35;;;1.50;;
7375;SDS011;3728;42.266;24.944;2023-05-07T13:01:11;1.83;;;1.15;;
7375;SDS011;3728;42.266;24.944;2023-05-07T13:03:42;3.33;;;1.70;;
7375;SDS011;3728;42.266;24.944;2023-05-07T13:06:17;1.42;;;1.20;;
7375;SDS011;3728;42.266;24.944;2023-05-07T13:08:45;2.20;;;1.60;;
7375;SDS011;3728;42.266;24.944;2023-05-07T13:11:15;2.15;;;1.40;;
7375;SDS011;3728;42.266;24.944;2023-05-07T13:13:46;1.85;;;1.40;;
7375;SDS011;3728;42.266;24.944;2023-05-07T13:16:16;2.97;;;1.48;;
7375;SDS011;3728;42.266;24.944;2023-05-07T13:18:47;2.50;;;1.75;;
7375;SDS011;3728;42.266;24.944;2023-05-07T13:21:15;3.70;;;1.20;;
7375;SDS011;3728;42.266;24.944;2023-05-07T13:23:45;5.65;;;1.77;;
7375;SDS011;3728;42.266;24.944;2023-05-07T13:26:13;3.25;;;1.42;;
7375;SDS011;3728;42.266;24.944;2023-05-07T13:28:53;4.63;;;1.40;;
7375;SDS011;3728;42.266;24.944;2023-05-07T13:31:24;2.85;;;1.50;;
7375;SDS011;3728;42.266;24.944;2023-05-07T13:33:52;2.90;;;1.60;;
7375;SDS011;3728;42.266;24.944;2023-05-07T13:36:21;2.25;;;1.20;;
7375;SDS011;3728;42.266;24.944;2023-05-07T13:38:49;2.88;;;1.60;;
7375;SDS011;3728;42.266;24.944;2023-05-07T13:41:18;2.17;;;1.50;;
7375;SDS011;3728;42.266;24.944;2023-05-07T13:43:46;3.55;;;1.83;;
7375;SDS011;3728;42.266;24.944;2023-05-07T13:46:14;1.88;;;1.38;;
7375;SDS011;3728;42.266;24.944;2023-05-07T13:48:43;2.30;;;1.50;;
7375;SDS011;3728;42.266;24.944;2023-05-07T13:51:11;2.10;;;1.42;;
7375;SDS011;3728;42.266;24.944;2023-05-07T13:53:39;1.65;;;1.48;;
7375;SDS011;3728;42.266;24.944;2023-05-07T13:56:07;2.95;;;1.70;;
7375;SDS011;3728;42.266;24.944;2023-05-07T13:58:34;2.13;;;1.52;;
7375;SDS011;3728;42.266;24.944;2023-05-07T14:01:21;2.13;;;1.50;;
7375;SDS011;3728;42.266;24.944;2023-05-07T14:03:50;1.70;;;1.60;;
7375;SDS011;3728;42.266;24.944;2023-05-07T14:06:18;4.60;;;1.63;;
7375;SDS011;3728;42.266;24.944;2023-05-07T14:08:46;4.78;;;1.60;;
7375;SDS011;3728;42.266;24.944;2023-05-07T14:11:13;4.28;;;1.52;;
7375;SDS011;3728;42.266;24.944;2023-05-07T14:13:41;2.83;;;1.70;;
7375;SDS011;3728;42.266;24.944;2023-05-07T14:16:08;2.67;;;2.25;;
7375;SDS011;3728;42.266;24.944;2023-05-07T14:18:36;2.03;;;1.80;;
7375;SDS011;3728;42.266;24.944;2023-05-07T14:21:05;3.15;;;1.60;;
7375;SDS011;3728;42.266;24.944;2023-05-07T14:23:32;3.53;;;1.60;;
7375;SDS011;3728;42.266;24.944;2023-05-07T14:26:00;3.60;;;1.50;;
7375;SDS011;3728;42.266;24.944;2023-05-07T14:28:28;5.45;;;1.05;;
7375;SDS011;3728;42.266;24.944;2023-05-07T14:30:56;1.48;;;1.35;;
7375;SDS011;3728;42.266;24.944;2023-05-07T14:33:23;3.45;;;1.30;;
7375;SDS011;3728;42.266;24.944;2023-05-07T14:35:51;2.60;;;1.35;;
7375;SDS011;3728;42.266;24.944;2023-05-07T14:38:19;1.50;;;1.30;;
7375;SDS011;3728;42.266;24.944;2023-05-07T14:40:47;2.40;;;1.58;;
7375;SDS011;3728;42.266;24.944;2023-05-07T14:43:14;3.08;;;1.67;;
7375;SDS011;3728;42.266;24.944;2023-05-07T14:45:42;3.67;;;1.75;;
7375;SDS011;3728;42.266;24.944;2023-05-07T14:48:10;1.85;;;1.40;;
7375;SDS011;3728;42.266;24.944;2023-05-07T14:50:42;2.63;;;1.60;;
7375;SDS011;3728;42.266;24.944;2023-05-07T14:53:09;4.38;;;1.60;;
7375;SDS011;3728;42.266;24.944;2023-05-07T14:55:37;2.03;;;1.27;;
7375;SDS011;3728;42.266;24.944;2023-05-07T14:58:05;2.70;;;1.55;;
7375;SDS011;3728;42.266;24.944;2023-05-07T15:00:34;3.60;;;1.45;;
7375;SDS011;3728;42.266;24.944;2023-05-07T15:03:05;2.47;;;1.85;;
7375;SDS011;3728;42.266;24.944;2023-05-07T15:05:35;2.45;;;1.90;;
7375;SDS011;3728;42.266;24.944;2023-05-07T15:08:05;3.30;;;1.50;;
7375;SDS011;3728;42.266;24.944;2023-05-07T15:10:34;3.50;;;1.45;;
7375;SDS011;3728;42.266;24.944;2023-05-07T15:13:09;2.42;;;1.42;;
7375;SDS011;3728;42.266;24.944;2023-05-07T15:15:41;1.85;;;1.60;;
7375;SDS011;3728;42.266;24.944;2023-05-07T15:18:10;2.20;;;1.65;;
7375;SDS011;3728;42.266;24.944;2023-05-07T15:20:39;2.83;;;1.77;;
7375;SDS011;3728;42.266;24.944;2023-05-07T15:23:08;3.60;;;1.42;;
7375;SDS011;3728;42.266;24.944;2023-05-07T15:25:37;5.20;;;1.65;;
7375;SDS011;3728;42.266;24.944;2023-05-07T15:28:08;1.67;;;1.58;;
7375;SDS011;3728;42.266;24.944;2023-05-07T15:30:35;4.72;;;1.52;;
7375;SDS011;3728;42.266;24.944;2023-05-07T15:33:08;3.72;;;2.10;;